Schiedam, Netherlands
Current Conditions -  °F | °C
As of 7:25 PM on Monday 26 Jan 2015 (Local Time) from EHRD Reporting Station
Scattered Clouds Scattered Clouds  
Wind Chill: 36°   Ceiling: Unl
Heat Index: 43°   Visibility: 6mi
Dew Point: 37°   Wind: 14mph
Humidity: 81%   Direction: 300°WNW
Pressure: 30.12"   Gusts: NA
Location:  51.92°N, 4.39°E
Report Text: EHRD 261825Z AUTO 30012KT 9999 FEW027 SCT039 06/03 Q1020 NOSIG
Loading
Personal Weather Stations






























Interactive Weather Map New forecast layout! Learn more

10-Day Weather Forecast

Advertisements
Track Severe Weather on mobile